sensor_id;sensor_type;location;lat;lon;timestamp;P1;durP1;ratioP1;P2;durP2;ratioP2
10230;SDS011;62604;49.432;8.680;2023-06-10T00:01:52;12.18;;;11.35;;
10230;SDS011;62604;49.432;8.680;2023-06-10T00:04:23;12.60;;;11.68;;
10230;SDS011;62604;49.432;8.680;2023-06-10T00:06:50;12.90;;;11.90;;
10230;SDS011;62604;49.432;8.680;2023-06-10T00:09:17;12.10;;;11.20;;
10230;SDS011;62604;49.432;8.680;2023-06-10T00:11:44;12.38;;;11.48;;
10230;SDS011;62604;49.432;8.680;2023-06-10T00:14:12;12.75;;;11.75;;
10230;SDS011;62604;49.432;8.680;2023-06-10T00:16:40;12.35;;;11.45;;
10230;SDS011;62604;49.432;8.680;2023-06-10T00:19:10;12.35;;;11.45;;
10230;SDS011;62604;49.432;8.680;2023-06-10T00:21:38;13.35;;;12.05;;
10230;SDS011;62604;49.432;8.680;2023-06-10T00:24:06;12.20;;;11.30;;
10230;SDS011;62604;49.432;8.680;2023-06-10T00:26:37;12.20;;;11.30;;
10230;SDS011;62604;49.432;8.680;2023-06-10T00:29:04;12.25;;;11.20;;
10230;SDS011;62604;49.432;8.680;2023-06-10T00:31:33;12.15;;;11.15;;
10230;SDS011;62604;49.432;8.680;2023-06-10T00:34:00;12.18;;;11.30;;
10230;SDS011;62604;49.432;8.680;2023-06-10T00:36:28;12.88;;;11.82;;
10230;SDS011;62604;49.432;8.680;2023-06-10T00:38:55;11.90;;;11.00;;
10230;SDS011;62604;49.432;8.680;2023-06-10T00:41:23;12.30;;;11.40;;
10230;SDS011;62604;49.432;8.680;2023-06-10T00:43:56;12.73;;;11.60;;
10230;SDS011;62604;49.432;8.680;2023-06-10T00:46:24;12.35;;;11.35;;
10230;SDS011;62604;49.432;8.680;2023-06-10T00:48:56;12.15;;;11.35;;
10230;SDS011;62604;49.432;8.680;2023-06-10T00:51:26;12.07;;;11.18;;
10230;SDS011;62604;49.432;8.680;2023-06-10T00:53:54;12.30;;;11.40;;
10230;SDS011;62604;49.432;8.680;2023-06-10T00:56:21;12.88;;;11.88;;
10230;SDS011;62604;49.432;8.680;2023-06-10T00:58:48;12.27;;;11.48;;
10230;SDS011;62604;49.432;8.680;2023-06-10T01:01:16;12.35;;;11.43;;
10230;SDS011;62604;49.432;8.680;2023-06-10T01:03:43;12.57;;;11.68;;
10230;SDS011;62604;49.432;8.680;2023-06-10T01:06:13;12.32;;;11.38;;
10230;SDS011;62604;49.432;8.680;2023-06-10T01:08:47;12.20;;;11.30;;
10230;SDS011;62604;49.432;8.680;2023-06-10T01:11:23;12.57;;;11.60;;
10230;SDS011;62604;49.432;8.680;2023-06-10T01:13:54;12.07;;;11.15;;
10230;SDS011;62604;49.432;8.680;2023-06-10T01:16:22;12.10;;;11.30;;
10230;SDS011;62604;49.432;8.680;2023-06-10T01:18:50;13.05;;;11.55;;
10230;SDS011;62604;49.432;8.680;2023-06-10T01:21:20;12.60;;;11.70;;
10230;SDS011;62604;49.432;8.680;2023-06-10T01:23:49;12.07;;;11.23;;
10230;SDS011;62604;49.432;8.680;2023-06-10T01:26:17;12.23;;;11.38;;
10230;SDS011;62604;49.432;8.680;2023-06-10T01:28:49;12.80;;;11.63;;
10230;SDS011;62604;49.432;8.680;2023-06-10T01:31:23;11.93;;;11.02;;
10230;SDS011;62604;49.432;8.680;2023-06-10T01:33:59;12.10;;;11.18;;
10230;SDS011;62604;49.432;8.680;2023-06-10T01:36:29;12.07;;;11.18;;
10230;SDS011;62604;49.432;8.680;2023-06-10T01:38:56;12.60;;;11.70;;
10230;SDS011;62604;49.432;8.680;2023-06-10T01:41:25;11.88;;;10.98;;
10230;SDS011;62604;49.432;8.680;2023-06-10T01:43:54;12.55;;;11.55;;
10230;SDS011;62604;49.432;8.680;2023-06-10T01:46:21;12.80;;;11.80;;
10230;SDS011;62604;49.432;8.680;2023-06-10T01:48:48;12.80;;;11.70;;
10230;SDS011;62604;49.432;8.680;2023-06-10T01:51:15;12.70;;;11.80;;
10230;SDS011;62604;49.432;8.680;2023-06-10T01:53:43;12.43;;;11.52;;
10230;SDS011;62604;49.432;8.680;2023-06-10T01:56:10;12.73;;;11.77;;
10230;SDS011;62604;49.432;8.680;2023-06-10T01:58:41;12.52;;;11.55;;
10230;SDS011;62604;49.432;8.680;2023-06-10T02:01:10;11.05;;;10.27;;
10230;SDS011;62604;49.432;8.680;2023-06-10T02:03:37;12.40;;;11.40;;
10230;SDS011;62604;49.432;8.680;2023-06-10T02:06:04;12.13;;;11.30;;
10230;SDS011;62604;49.432;8.680;2023-06-10T02:08:31;12.48;;;11.48;;
10230;SDS011;62604;49.432;8.680;2023-06-10T02:10:59;12.90;;;12.00;;
10230;SDS011;62604;49.432;8.680;2023-06-10T02:13:26;12.35;;;11.45;;
10230;SDS011;62604;49.432;8.680;2023-06-10T02:15:53;13.35;;;12.20;;
10230;SDS011;62604;49.432;8.680;2023-06-10T02:18:20;11.20;;;10.30;;
10230;SDS011;62604;49.432;8.680;2023-06-10T02:20:47;12.45;;;11.48;;
10230;SDS011;62604;49.432;8.680;2023-06-10T02:23:14;10.32;;;9.63;;
10230;SDS011;62604;49.432;8.680;2023-06-10T02:25:41;12.63;;;11.73;;
10230;SDS011;62604;49.432;8.680;2023-06-10T02:28:10;12.32;;;11.38;;
10230;SDS011;62604;49.432;8.680;2023-06-10T02:30:38;12.45;;;11.55;;
10230;SDS011;62604;49.432;8.680;2023-06-10T02:33:06;12.30;;;11.40;;
10230;SDS011;62604;49.432;8.680;2023-06-10T02:35:35;13.38;;;12.27;;
10230;SDS011;62604;49.432;8.680;2023-06-10T02:38:02;12.50;;;11.60;;
10230;SDS011;62604;49.432;8.680;2023-06-10T02:40:29;12.45;;;11.55;;
10230;SDS011;62604;49.432;8.680;2023-06-10T02:42:56;12.88;;;11.95;;
10230;SDS011;62604;49.432;8.680;2023-06-10T02:45:24;12.52;;;11.60;;
10230;SDS011;62604;49.432;8.680;2023-06-10T02:47:51;13.48;;;12.13;;
10230;SDS011;62604;49.432;8.680;2023-06-10T02:50:18;12.73;;;11.73;;
10230;SDS011;62604;49.432;8.680;2023-06-10T02:52:45;12.55;;;11.45;;
10230;SDS011;62604;49.432;8.680;2023-06-10T02:55:12;13.43;;;12.20;;
10230;SDS011;62604;49.432;8.680;2023-06-10T02:57:42;12.20;;;11.30;;
10230;SDS011;62604;49.432;8.680;2023-06-10T03:00:11;12.93;;;11.85;;
10230;SDS011;62604;49.432;8.680;2023-06-10T03:02:49;12.48;;;11.57;;
10230;SDS011;62604;49.432;8.680;2023-06-10T03:05:15;12.40;;;11.50;;
10230;SDS011;62604;49.432;8.680;2023-06-10T03:07:42;12.98;;;11.95;;
10230;SDS011;62604;49.432;8.680;2023-06-10T03:10:12;13.10;;;12.10;;
10230;SDS011;62604;49.432;8.680;2023-06-10T03:12:39;12.30;;;11.38;;
10230;SDS011;62604;49.432;8.680;2023-06-10T03:15:06;13.05;;;12.05;;
10230;SDS011;62604;49.432;8.680;2023-06-10T03:17:34;12.85;;;11.85;;
10230;SDS011;62604;49.432;8.680;2023-06-10T03:20:02;12.80;;;11.80;;
10230;SDS011;62604;49.432;8.680;2023-06-10T03:22:30;12.48;;;11.52;;
10230;SDS011;62604;49.432;8.680;2023-06-10T03:24:57;13.10;;;12.02;;
10230;SDS011;62604;49.432;8.680;2023-06-10T03:27:24;12.30;;;11.45;;
10230;SDS011;62604;49.432;8.680;2023-06-10T03:29:51;12.82;;;11.70;;
10230;SDS011;62604;49.432;8.680;2023-06-10T03:32:18;12.55;;;11.65;;
10230;SDS011;62604;49.432;8.680;2023-06-10T03:34:45;12.98;;;11.98;;
10230;SDS011;62604;49.432;8.680;2023-06-10T03:37:14;12.73;;;11.73;;
10230;SDS011;62604;49.432;8.680;2023-06-10T03:39:41;13.35;;;12.18;;
10230;SDS011;62604;49.432;8.680;2023-06-10T03:42:08;12.73;;;11.75;;
10230;SDS011;62604;49.432;8.680;2023-06-10T03:44:35;12.77;;;11.80;;
10230;SDS011;62604;49.432;8.680;2023-06-10T03:47:03;12.85;;;11.85;;
10230;SDS011;62604;49.432;8.680;2023-06-10T03:49:30;12.85;;;11.90;;
10230;SDS011;62604;49.432;8.680;2023-06-10T03:51:58;12.60;;;11.70;;
10230;SDS011;62604;49.432;8.680;2023-06-10T03:54:26;12.52;;;11.55;;
10230;SDS011;62604;49.432;8.680;2023-06-10T03:56:54;11.80;;;10.93;;
10230;SDS011;62604;49.432;8.680;2023-06-10T03:59:21;12.75;;;11.75;;
10230;SDS011;62604;49.432;8.680;2023-06-10T04:01:48;12.48;;;11.52;;
10230;SDS011;62604;49.432;8.680;2023-06-10T04:04:15;12.60;;;11.70;;
10230;SDS011;62604;49.432;8.680;2023-06-10T04:06:42;13.07;;;11.98;;
10230;SDS011;62604;49.432;8.680;2023-06-10T04:09:09;12.00;;;11.05;;
10230;SDS011;62604;49.432;8.680;2023-06-10T04:11:38;12.20;;;11.20;;
10230;SDS011;62604;49.432;8.680;2023-06-10T04:14:05;12.32;;;11.43;;
10230;SDS011;62604;49.432;8.680;2023-06-10T04:16:32;11.77;;;10.98;;
10230;SDS011;62604;49.432;8.680;2023-06-10T04:19:00;12.30;;;11.35;;
10230;SDS011;62604;49.432;8.680;2023-06-10T04:21:27;12.55;;;11.63;;
10230;SDS011;62604;49.432;8.680;2023-06-10T04:23:56;12.45;;;11.45;;
10230;SDS011;62604;49.432;8.680;2023-06-10T04:26:25;12.10;;;11.20;;
10230;SDS011;62604;49.432;8.680;2023-06-10T04:28:59;12.85;;;11.85;;
10230;SDS011;62604;49.432;8.680;2023-06-10T04:31:31;12.85;;;11.82;;
10230;SDS011;62604;49.432;8.680;2023-06-10T04:34:02;13.07;;;11.80;;
10230;SDS011;62604;49.432;8.680;2023-06-10T04:36:29;12.30;;;11.43;;
10230;SDS011;62604;49.432;8.680;2023-06-10T04:39:03;12.27;;;11.48;;
10230;SDS011;62604;49.432;8.680;2023-06-10T04:41:33;12.57;;;11.63;;
10230;SDS011;62604;49.432;8.680;2023-06-10T04:44:06;12.68;;;11.77;;
10230;SDS011;62604;49.432;8.680;2023-06-10T04:46:35;12.82;;;11.77;;
10230;SDS011;62604;49.432;8.680;2023-06-10T04:49:03;13.40;;;12.13;;
10230;SDS011;62604;49.432;8.680;2023-06-10T04:51:34;11.90;;;11.10;;
10230;SDS011;62604;49.432;8.680;2023-06-10T04:54:03;11.90;;;11.02;;
10230;SDS011;62604;49.432;8.680;2023-06-10T04:56:35;13.07;;;11.88;;
10230;SDS011;62604;49.432;8.680;2023-06-10T04:59:04;12.45;;;11.43;;
10230;SDS011;62604;49.432;8.680;2023-06-10T05:01:32;12.60;;;11.60;;
10230;SDS011;62604;49.432;8.680;2023-06-10T05:03:59;13.00;;;11.82;;
10230;SDS011;62604;49.432;8.680;2023-06-10T05:06:25;12.80;;;11.80;;
10230;SDS011;62604;49.432;8.680;2023-06-10T05:08:52;12.63;;;11.70;;
10230;SDS011;62604;49.432;8.680;2023-06-10T05:11:19;11.82;;;11.02;;
10230;SDS011;62604;49.432;8.680;2023-06-10T05:13:47;12.32;;;11.32;;
10230;SDS011;62604;49.432;8.680;2023-06-10T05:16:15;11.88;;;11.05;;
10230;SDS011;62604;49.432;8.680;2023-06-10T05:18:42;12.63;;;11.57;;
10230;SDS011;62604;49.432;8.680;2023-06-10T05:21:09;12.27;;;11.40;;
10230;SDS011;62604;49.432;8.680;2023-06-10T05:23:36;12.68;;;11.68;;
10230;SDS011;62604;49.432;8.680;2023-06-10T05:26:03;12.35;;;11.45;;
10230;SDS011;62604;49.432;8.680;2023-06-10T05:28:30;12.55;;;11.65;;
10230;SDS011;62604;49.432;8.680;2023-06-10T05:30:57;12.48;;;11.57;;
10230;SDS011;62604;49.432;8.680;2023-06-10T05:33:25;13.05;;;11.95;;
10230;SDS011;62604;49.432;8.680;2023-06-10T05:35:52;12.98;;;11.77;;
10230;SDS011;62604;49.432;8.680;2023-06-10T05:38:21;13.27;;;11.65;;
10230;SDS011;62604;49.432;8.680;2023-06-10T05:40:48;13.15;;;12.15;;
10230;SDS011;62604;49.432;8.680;2023-06-10T05:43:15;12.07;;;11.18;;
10230;SDS011;62604;49.432;8.680;2023-06-10T05:45:42;12.82;;;11.93;;
10230;SDS011;62604;49.432;8.680;2023-06-10T05:48:09;13.20;;;12.20;;
10230;SDS011;62604;49.432;8.680;2023-06-10T05:50:38;12.75;;;11.80;;
10230;SDS011;62604;49.432;8.680;2023-06-10T05:53:07;12.73;;;11.73;;
10230;SDS011;62604;49.432;8.680;2023-06-10T05:55:39;12.70;;;11.55;;
10230;SDS011;62604;49.432;8.680;2023-06-10T05:58:06;13.00;;;12.00;;
10230;SDS011;62604;49.432;8.680;2023-06-10T06:00:33;12.68;;;11.68;;
10230;SDS011;62604;49.432;8.680;2023-06-10T06:03:01;13.00;;;11.95;;
10230;SDS011;62604;49.432;8.680;2023-06-10T06:05:30;12.55;;;11.57;;
10230;SDS011;62604;49.432;8.680;2023-06-10T06:08:01;12.50;;;11.55;;
10230;SDS011;62604;49.432;8.680;2023-06-10T06:10:28;12.88;;;11.82;;
10230;SDS011;62604;49.432;8.680;2023-06-10T06:12:55;13.00;;;11.88;;
10230;SDS011;62604;49.432;8.680;2023-06-10T06:15:22;12.85;;;11.75;;
10230;SDS011;62604;49.432;8.680;2023-06-10T06:17:50;12.90;;;11.77;;
10230;SDS011;62604;49.432;8.680;2023-06-10T06:20:18;12.73;;;11.43;;
10230;SDS011;62604;49.432;8.680;2023-06-10T06:22:45;12.82;;;11.63;;
10230;SDS011;62604;49.432;8.680;2023-06-10T06:25:18;12.45;;;11.50;;
10230;SDS011;62604;49.432;8.680;2023-06-10T06:27:49;12.15;;;11.30;;
10230;SDS011;62604;49.432;8.680;2023-06-10T06:30:21;12.60;;;11.60;;
10230;SDS011;62604;49.432;8.680;2023-06-10T06:32:50;12.73;;;11.73;;
10230;SDS011;62604;49.432;8.680;2023-06-10T06:35:20;13.02;;;11.93;;
10230;SDS011;62604;49.432;8.680;2023-06-10T06:37:48;13.38;;;12.15;;
10230;SDS011;62604;49.432;8.680;2023-06-10T06:40:18;12.68;;;11.57;;
10230;SDS011;62604;49.432;8.680;2023-06-10T06:42:45;12.82;;;11.80;;
10230;SDS011;62604;49.432;8.680;2023-06-10T06:45:12;12.40;;;11.38;;
10230;SDS011;62604;49.432;8.680;2023-06-10T06:47:39;12.80;;;11.80;;
10230;SDS011;62604;49.432;8.680;2023-06-10T06:50:09;13.20;;;12.10;;
10230;SDS011;62604;49.432;8.680;2023-06-10T06:52:38;13.50;;;12.40;;
10230;SDS011;62604;49.432;8.680;2023-06-10T06:55:05;13.00;;;11.90;;
10230;SDS011;62604;49.432;8.680;2023-06-10T06:57:34;12.90;;;11.98;;
10230;SDS011;62604;49.432;8.680;2023-06-10T07:00:02;12.70;;;11.80;;
10230;SDS011;62604;49.432;8.680;2023-06-10T07:02:29;13.15;;;12.05;;
10230;SDS011;62604;49.432;8.680;2023-06-10T07:04:58;12.70;;;11.70;;
10230;SDS011;62604;49.432;8.680;2023-06-10T07:07:25;12.90;;;12.00;;
10230;SDS011;62604;49.432;8.680;2023-06-10T07:09:52;12.93;;;11.57;;
10230;SDS011;62604;49.432;8.680;2023-06-10T07:12:19;12.88;;;11.95;;
10230;SDS011;62604;49.432;8.680;2023-06-10T07:14:50;12.70;;;11.85;;
10230;SDS011;62604;49.432;8.680;2023-06-10T07:17:17;12.77;;;11.88;;
10230;SDS011;62604;49.432;8.680;2023-06-10T07:19:45;12.05;;;11.20;;
10230;SDS011;62604;49.432;8.680;2023-06-10T07:22:22;12.35;;;11.45;;
10230;SDS011;62604;49.432;8.680;2023-06-10T07:24:49;11.75;;;10.95;;
10230;SDS011;62604;49.432;8.680;2023-06-10T07:27:16;11.23;;;10.13;;
10230;SDS011;62604;49.432;8.680;2023-06-10T07:29:44;11.57;;;10.77;;
10230;SDS011;62604;49.432;8.680;2023-06-10T07:32:12;10.85;;;10.15;;
10230;SDS011;62604;49.432;8.680;2023-06-10T07:34:39;11.10;;;10.40;;
10230;SDS011;62604;49.432;8.680;2023-06-10T07:37:06;11.10;;;10.30;;
10230;SDS011;62604;49.432;8.680;2023-06-10T07:39:33;11.43;;;10.63;;
10230;SDS011;62604;49.432;8.680;2023-06-10T07:42:00;11.10;;;10.38;;
10230;SDS011;62604;49.432;8.680;2023-06-10T07:44:27;11.18;;;10.48;;
10230;SDS011;62604;49.432;8.680;2023-06-10T07:46:54;11.55;;;10.75;;
10230;SDS011;62604;49.432;8.680;2023-06-10T07:49:24;12.15;;;11.10;;
10230;SDS011;62604;49.432;8.680;2023-06-10T07:51:51;12.77;;;11.98;;
10230;SDS011;62604;49.432;8.680;2023-06-10T07:54:20;11.82;;;10.98;;
10230;SDS011;62604;49.432;8.680;2023-06-10T07:56:46;13.02;;;12.13;;
10230;SDS011;62604;49.432;8.680;2023-06-10T07:59:13;13.05;;;12.15;;
10230;SDS011;62604;49.432;8.680;2023-06-10T08:01:40;12.88;;;11.98;;
10230;SDS011;62604;49.432;8.680;2023-06-10T08:04:08;13.05;;;12.15;;
10230;SDS011;62604;49.432;8.680;2023-06-10T08:06:36;13.10;;;12.10;;
10230;SDS011;62604;49.432;8.680;2023-06-10T08:09:03;13.35;;;12.40;;
10230;SDS011;62604;49.432;8.680;2023-06-10T08:11:30;13.32;;;12.13;;
10230;SDS011;62604;49.432;8.680;2023-06-10T08:13:57;12.85;;;11.95;;
10230;SDS011;62604;49.432;8.680;2023-06-10T08:16:24;13.65;;;12.55;;
10230;SDS011;62604;49.432;8.680;2023-06-10T08:18:51;13.00;;;12.00;;
10230;SDS011;62604;49.432;8.680;2023-06-10T08:21:18;13.23;;;12.18;;
10230;SDS011;62604;49.432;8.680;2023-06-10T08:23:47;13.52;;;12.52;;
10230;SDS011;62604;49.432;8.680;2023-06-10T08:26:14;13.57;;;12.68;;
10230;SDS011;62604;49.432;8.680;2023-06-10T08:28:40;13.15;;;12.15;;
10230;SDS011;62604;49.432;8.680;2023-06-10T08:31:07;12.95;;;12.00;;
10230;SDS011;62604;49.432;8.680;2023-06-10T08:33:34;13.77;;;12.63;;
10230;SDS011;62604;49.432;8.680;2023-06-10T08:36:01;13.30;;;12.38;;
10230;SDS011;62604;49.432;8.680;2023-06-10T08:38:28;13.00;;;12.10;;
10230;SDS011;62604;49.432;8.680;2023-06-10T08:40:59;13.32;;;12.25;;
10230;SDS011;62604;49.432;8.680;2023-06-10T08:43:28;13.27;;;12.38;;
10230;SDS011;62604;49.432;8.680;2023-06-10T08:45:59;13.40;;;12.48;;
10230;SDS011;62604;49.432;8.680;2023-06-10T08:48:27;12.32;;;11.43;;
10230;SDS011;62604;49.432;8.680;2023-06-10T08:50:56;13.27;;;12.38;;
10230;SDS011;62604;49.432;8.680;2023-06-10T08:53:24;14.05;;;12.95;;
10230;SDS011;62604;49.432;8.680;2023-06-10T08:55:53;14.00;;;12.93;;
10230;SDS011;62604;49.432;8.680;2023-06-10T08:58:25;13.73;;;12.73;;
10230;SDS011;62604;49.432;8.680;2023-06-10T09:00:53;13.80;;;12.80;;
10230;SDS011;62604;49.432;8.680;2023-06-10T09:03:21;13.02;;;12.13;;
10230;SDS011;62604;49.432;8.680;2023-06-10T09:05:50;13.57;;;12.60;;
10230;SDS011;62604;49.432;8.680;2023-06-10T09:08:17;14.00;;;13.00;;
10230;SDS011;62604;49.432;8.680;2023-06-10T09:10:44;13.68;;;12.68;;
10230;SDS011;62604;49.432;8.680;2023-06-10T09:13:11;13.73;;;12.80;;
10230;SDS011;62604;49.432;8.680;2023-06-10T09:15:42;13.30;;;12.32;;
10230;SDS011;62604;49.432;8.680;2023-06-10T09:18:09;13.40;;;12.50;;
10230;SDS011;62604;49.432;8.680;2023-06-10T09:20:37;13.70;;;12.60;;
10230;SDS011;62604;49.432;8.680;2023-06-10T09:23:05;13.43;;;12.43;;
10230;SDS011;62604;49.432;8.680;2023-06-10T09:25:36;12.70;;;11.90;;
10230;SDS011;62604;49.432;8.680;2023-06-10T09:28:04;13.63;;;12.63;;
10230;SDS011;62604;49.432;8.680;2023-06-10T09:30:38;13.50;;;12.45;;
10230;SDS011;62604;49.432;8.680;2023-06-10T09:33:10;13.43;;;12.43;;
10230;SDS011;62604;49.432;8.680;2023-06-10T09:35:44;13.23;;;12.23;;
10230;SDS011;62604;49.432;8.680;2023-06-10T09:38:12;13.30;;;12.40;;
10230;SDS011;62604;49.432;8.680;2023-06-10T09:40:48;12.60;;;11.70;;
10230;SDS011;62604;49.432;8.680;2023-06-10T09:43:16;12.32;;;11.43;;
10230;SDS011;62604;49.432;8.680;2023-06-10T09:45:43;13.00;;;12.13;;
10230;SDS011;62604;49.432;8.680;2023-06-10T09:48:11;13.57;;;12.48;;
10230;SDS011;62604;49.432;8.680;2023-06-10T09:50:41;12.93;;;12.02;;
10230;SDS011;62604;49.432;8.680;2023-06-10T09:53:09;13.52;;;12.55;;
10230;SDS011;62604;49.432;8.680;2023-06-10T09:55:37;13.90;;;12.45;;
10230;SDS011;62604;49.432;8.680;2023-06-10T09:58:04;12.55;;;11.65;;
10230;SDS011;62604;49.432;8.680;2023-06-10T10:00:31;12.77;;;11.88;;
10230;SDS011;62604;49.432;8.680;2023-06-10T10:02:59;13.23;;;12.32;;
10230;SDS011;62604;49.432;8.680;2023-06-10T10:05:28;12.60;;;11.70;;
10230;SDS011;62604;49.432;8.680;2023-06-10T10:07:55;12.93;;;12.02;;
10230;SDS011;62604;49.432;8.680;2023-06-10T10:10:22;12.68;;;11.77;;
10230;SDS011;62604;49.432;8.680;2023-06-10T10:12:51;13.95;;;12.50;;
10230;SDS011;62604;49.432;8.680;2023-06-10T10:15:22;12.70;;;11.80;;
10230;SDS011;62604;49.432;8.680;2023-06-10T10:17:52;13.40;;;12.50;;
10230;SDS011;62604;49.432;8.680;2023-06-10T10:20:24;13.45;;;12.55;;
10230;SDS011;62604;49.432;8.680;2023-06-10T10:22:56;13.27;;;12.27;;
10230;SDS011;62604;49.432;8.680;2023-06-10T10:25:25;13.45;;;12.50;;
10230;SDS011;62604;49.432;8.680;2023-06-10T10:27:56;13.40;;;12.50;;
10230;SDS011;62604;49.432;8.680;2023-06-10T10:30:25;13.15;;;12.25;;
10230;SDS011;62604;49.432;8.680;2023-06-10T10:32:56;14.07;;;13.00;;
10230;SDS011;62604;49.432;8.680;2023-06-10T10:35:27;13.10;;;12.20;;
10230;SDS011;62604;49.432;8.680;2023-06-10T10:37:56;13.00;;;12.10;;
10230;SDS011;62604;49.432;8.680;2023-06-10T10:40:23;13.75;;;12.75;;
10230;SDS011;62604;49.432;8.680;2023-06-10T10:42:51;13.82;;;12.82;;
10230;SDS011;62604;49.432;8.680;2023-06-10T10:45:21;13.25;;;12.35;;
10230;SDS011;62604;49.432;8.680;2023-06-10T10:47:51;13.82;;;12.93;;
10230;SDS011;62604;49.432;8.680;2023-06-10T10:50:20;14.15;;;13.15;;
10230;SDS011;62604;49.432;8.680;2023-06-10T10:52:53;14.25;;;13.15;;
10230;SDS011;62604;49.432;8.680;2023-06-10T10:55:22;14.07;;;12.98;;
10230;SDS011;62604;49.432;8.680;2023-06-10T10:57:53;13.20;;;12.30;;
10230;SDS011;62604;49.432;8.680;2023-06-10T11:00:25;13.70;;;12.68;;
10230;SDS011;62604;49.432;8.680;2023-06-10T11:02:55;13.85;;;12.85;;
10230;SDS011;62604;49.432;8.680;2023-06-10T11:05:31;12.23;;;11.43;;
10230;SDS011;62604;49.432;8.680;2023-06-10T11:08:04;13.70;;;12.70;;
10230;SDS011;62604;49.432;8.680;2023-06-10T11:10:31;13.30;;;12.40;;
10230;SDS011;62604;49.432;8.680;2023-06-10T11:12:59;12.43;;;11.52;;
10230;SDS011;62604;49.432;8.680;2023-06-10T11:15:31;12.02;;;11.07;;
10230;SDS011;62604;49.432;8.680;2023-06-10T11:20:56;11.65;;;10.85;;
10230;SDS011;62604;49.432;8.680;2023-06-10T11:23:38;11.43;;;10.60;;
10230;SDS011;62604;49.432;8.680;2023-06-10T11:26:10;11.82;;;11.02;;
10230;SDS011;62604;49.432;8.680;2023-06-10T11:28:42;11.90;;;10.90;;
10230;SDS011;62604;49.432;8.680;2023-06-10T11:31:29;11.48;;;10.68;;
10230;SDS011;62604;49.432;8.680;2023-06-10T11:33:57;12.20;;;11.30;;
10230;SDS011;62604;49.432;8.680;2023-06-10T11:36:25;12.20;;;11.15;;
10230;SDS011;62604;49.432;8.680;2023-06-10T11:38:55;13.15;;;12.25;;
10230;SDS011;62604;49.432;8.680;2023-06-10T11:41:23;13.43;;;12.52;;
10230;SDS011;62604;49.432;8.680;2023-06-10T11:43:51;12.40;;;11.60;;
10230;SDS011;62604;49.432;8.680;2023-06-10T11:46:19;12.02;;;11.13;;
10230;SDS011;62604;49.432;8.680;2023-06-10T11:48:49;13.02;;;12.10;;
10230;SDS011;62604;49.432;8.680;2023-06-10T11:51:16;11.35;;;10.55;;
10230;SDS011;62604;49.432;8.680;2023-06-10T11:53:43;12.38;;;11.48;;
10230;SDS011;62604;49.432;8.680;2023-06-10T11:56:12;13.18;;;12.27;;
10230;SDS011;62604;49.432;8.680;2023-06-10T11:58:39;12.77;;;11.70;;
10230;SDS011;62604;49.432;8.680;2023-06-10T12:01:11;11.15;;;10.38;;
10230;SDS011;62604;49.432;8.680;2023-06-10T12:03:47;13.10;;;11.77;;
10230;SDS011;62604;49.432;8.680;2023-06-10T12:06:13;11.77;;;10.98;;
10230;SDS011;62604;49.432;8.680;2023-06-10T12:08:41;11.98;;;11.07;;
10230;SDS011;62604;49.432;8.680;2023-06-10T12:11:08;12.25;;;11.35;;
10230;SDS011;62604;49.432;8.680;2023-06-10T12:13:37;12.07;;;11.18;;
10230;SDS011;62604;49.432;8.680;2023-06-10T12:16:13;11.18;;;10.48;;
10230;SDS011;62604;49.432;8.680;2023-06-10T12:18:43;12.23;;;11.43;;
10230;SDS011;62604;49.432;8.680;2023-06-10T12:21:18;12.18;;;11.32;;
10230;SDS011;62604;49.432;8.680;2023-06-10T12:23:59;11.43;;;10.63;;
10230;SDS011;62604;49.432;8.680;2023-06-10T12:26:34;11.85;;;11.05;;
10230;SDS011;62604;49.432;8.680;2023-06-10T12:29:19;12.07;;;11.18;;
10230;SDS011;62604;49.432;8.680;2023-06-10T12:31:53;11.80;;;11.00;;
10230;SDS011;62604;49.432;8.680;2023-06-10T12:34:30;11.40;;;10.60;;
10230;SDS011;62604;49.432;8.680;2023-06-10T12:36:58;11.25;;;10.50;;
10230;SDS011;62604;49.432;8.680;2023-06-10T12:39:25;11.30;;;10.45;;
10230;SDS011;62604;49.432;8.680;2023-06-10T12:41:52;10.75;;;10.05;;
10230;SDS011;62604;49.432;8.680;2023-06-10T12:44:29;11.20;;;10.50;;
10230;SDS011;62604;49.432;8.680;2023-06-10T12:46:57;11.70;;;10.88;;
10230;SDS011;62604;49.432;8.680;2023-06-10T12:49:24;11.35;;;10.60;;
10230;SDS011;62604;49.432;8.680;2023-06-10T12:51:51;11.52;;;10.73;;
10230;SDS011;62604;49.432;8.680;2023-06-10T12:54:18;11.98;;;11.18;;
10230;SDS011;62604;49.432;8.680;2023-06-10T12:56:45;11.05;;;10.35;;
10230;SDS011;62604;49.432;8.680;2023-06-10T12:59:12;11.32;;;10.23;;
10230;SDS011;62604;49.432;8.680;2023-06-10T13:01:41;12.82;;;11.93;;
10230;SDS011;62604;49.432;8.680;2023-06-10T13:04:08;12.77;;;11.77;;
10230;SDS011;62604;49.432;8.680;2023-06-10T13:06:36;13.27;;;12.18;;
10230;SDS011;62604;49.432;8.680;2023-06-10T13:09:03;12.10;;;11.20;;
10230;SDS011;62604;49.432;8.680;2023-06-10T13:11:32;12.00;;;11.10;;
10230;SDS011;62604;49.432;8.680;2023-06-10T13:14:00;11.80;;;11.00;;
10230;SDS011;62604;49.432;8.680;2023-06-10T13:16:27;12.45;;;11.55;;
10230;SDS011;62604;49.432;8.680;2023-06-10T13:18:56;11.55;;;10.52;;
10230;SDS011;62604;49.432;8.680;2023-06-10T13:21:23;12.43;;;10.57;;
10230;SDS011;62604;49.432;8.680;2023-06-10T13:23:50;11.18;;;10.48;;
10230;SDS011;62604;49.432;8.680;2023-06-10T13:26:17;11.50;;;10.70;;
10230;SDS011;62604;49.432;8.680;2023-06-10T13:28:44;11.00;;;10.30;;
10230;SDS011;62604;49.432;8.680;2023-06-10T13:31:11;11.20;;;10.32;;
10230;SDS011;62604;49.432;8.680;2023-06-10T13:33:38;10.48;;;9.82;;
10230;SDS011;62604;49.432;8.680;2023-06-10T13:36:06;10.70;;;9.77;;
10230;SDS011;62604;49.432;8.680;2023-06-10T13:38:33;10.68;;;9.98;;
10230;SDS011;62604;49.432;8.680;2023-06-10T13:41:00;10.23;;;9.60;;
10230;SDS011;62604;49.432;8.680;2023-06-10T13:43:27;11.27;;;10.40;;
10230;SDS011;62604;49.432;8.680;2023-06-10T13:45:55;11.13;;;10.20;;
10230;SDS011;62604;49.432;8.680;2023-06-10T13:48:22;10.75;;;9.95;;
10230;SDS011;62604;49.432;8.680;2023-06-10T13:50:49;10.60;;;9.90;;
10230;SDS011;62604;49.432;8.680;2023-06-10T13:53:17;10.43;;;9.73;;
10230;SDS011;62604;49.432;8.680;2023-06-10T13:55:44;10.15;;;9.55;;
10230;SDS011;62604;49.432;8.680;2023-06-10T13:58:12;10.75;;;10.05;;
10230;SDS011;62604;49.432;8.680;2023-06-10T14:00:39;10.75;;;10.00;;
10230;SDS011;62604;49.432;8.680;2023-06-10T14:03:06;10.25;;;9.50;;
10230;SDS011;62604;49.432;8.680;2023-06-10T14:05:34;10.60;;;9.90;;
10230;SDS011;62604;49.432;8.680;2023-06-10T14:08:00;10.35;;;9.75;;
10230;SDS011;62604;49.432;8.680;2023-06-10T14:10:29;10.70;;;10.00;;
10230;SDS011;62604;49.432;8.680;2023-06-10T14:12:56;10.63;;;9.93;;
10230;SDS011;62604;49.432;8.680;2023-06-10T14:15:23;10.48;;;9.77;;
10230;SDS011;62604;49.432;8.680;2023-06-10T14:17:50;10.85;;;10.15;;
10230;SDS011;62604;49.432;8.680;2023-06-10T14:20:17;11.07;;;10.27;;
10230;SDS011;62604;49.432;8.680;2023-06-10T14:22:44;10.80;;;10.00;;
10230;SDS011;62604;49.432;8.680;2023-06-10T14:25:11;11.05;;;10.18;;
10230;SDS011;62604;49.432;8.680;2023-06-10T14:27:39;10.60;;;9.85;;
10230;SDS011;62604;49.432;8.680;2023-06-10T14:30:07;10.85;;;10.07;;
10230;SDS011;62604;49.432;8.680;2023-06-10T14:32:34;11.27;;;10.57;;